Time;durP1;ratioP1;P1;durP2;ratioP2;P2;SDS_P1;SDS_P2;PMS_P1;PMS_P2;Temp;Humidity;BMP_temperature;BMP_pressure;BME280_temperature;BME280_humidity;BME280_pressure;Samples;Min_cycle;Max_cycle;Signal;HPM_P1;HPM_P2
2023/06/19 00:03:02;;;;;;;14.70;13.13;;;;;;;27.16;44.05;101054.31;21089079;28;20036;-58
2023/06/19 00:13:04;;;;;;;14.13;12.52;;;;;;;27.09;43.97;101043.56;21088750;28;20036;-57
2023/06/19 00:23:10;;;;;;;15.60;13.63;;;;;;;27.16;43.92;101043.09;21087112;28;20188;-58
2023/06/19 00:33:11;;;;;;;14.83;13.33;;;;;;;27.19;43.84;101057.31;21086153;28;20066;-57
2023/06/19 00:43:13;;;;;;;14.15;12.57;;;;;;;27.20;43.89;101033.69;21084738;28;20044;-57
2023/06/19 00:53:14;;;;;;;14.82;13.32;;;;;;;27.14;43.79;101056.63;21085440;28;20040;-57
2023/06/19 01:03:16;;;;;;;14.30;12.80;;;;;;;27.21;43.65;101077.47;21084969;28;20052;-57
2023/06/19 01:13:44;;;;;;;15.02;13.43;;;;;;;27.18;43.95;101103.44;21083977;28;20040;-57
2023/06/19 01:23:46;;;;;;;14.43;12.88;;;;;;;27.26;43.90;101107.44;21083120;28;20040;-56
2023/06/19 01:33:50;;;;;;;13.57;12.18;;;;;;;27.15;43.72;101120.09;21082167;28;20373;-57
2023/06/19 01:43:53;;;;;;;13.57;12.18;;;;;;;27.22;43.87;101137.34;21081324;28;20113;-58
2023/06/19 01:53:54;;;;;;;14.40;12.90;;;;;;;27.11;43.67;101137.56;21079989;28;20040;-57
2023/06/19 02:03:58;;;;;;;13.18;11.77;;;;;;;27.25;43.43;101165.59;21079222;28;20058;-57
2023/06/19 02:14:00;;;;;;;14.20;12.75;;;;;;;27.27;43.26;101191.41;21079367;28;20040;-58
2023/06/19 02:24:04;;;;;;;14.55;12.18;;;;;;;27.29;42.91;101193.91;21079554;28;20036;-59
2023/06/19 02:34:06;;;;;;;13.48;12.07;;;;;;;27.31;42.89;101202.84;21079269;28;20040;-60
2023/06/19 02:44:08;;;;;;;14.70;12.35;;;;;;;27.31;42.80;101203.69;21078178;28;20392;-59
2023/06/19 02:54:09;;;;;;;14.35;12.85;;;;;;;27.33;42.79;101218.22;21077019;28;20036;-61
2023/06/19 03:04:14;;;;;;;15.27;12.10;;;;;;;27.35;42.58;101226.34;21077972;28;20032;-60
2023/06/19 03:14:15;;;;;;;13.93;12.35;;;;;;;27.37;42.60;101235.28;21094506;28;20093;-59
2023/06/19 03:24:16;;;;;;;13.57;12.15;;;;;;;27.31;42.40;101248.66;21094374;28;20036;-61
2023/06/19 03:34:21;;;;;;;12.80;11.45;;;;;;;27.29;42.72;101239.69;21093357;28;20044;-59
2023/06/19 03:44:22;;;;;;;12.50;11.20;;;;;;;27.41;42.21;101266.41;21092463;28;20102;-59
2023/06/19 03:54:24;;;;;;;13.05;11.70;;;;;;;27.42;42.53;101279.31;21091951;28;20411;-58
2023/06/19 04:04:26;;;;;;;13.52;11.55;;;;;;;27.43;42.52;101297.81;21089606;28;20032;-59
2023/06/19 04:14:27;;;;;;;12.20;11.00;;;;;;;27.43;42.33;101295.00;21090187;28;20426;-58
2023/06/19 04:24:29;;;;;;;12.20;10.82;;;;;;;27.43;42.10;101303.44;21089253;28;20100;-60
2023/06/19 04:34:31;;;;;;;12.82;11.30;;;;;;;27.38;42.22;101295.13;21088964;28;20074;-61
2023/06/19 04:44:33;;;;;;;11.23;10.13;;;;;;;27.44;42.13;101296.66;21087567;28;20446;-59
2023/06/19 04:54:35;;;;;;;13.00;11.60;;;;;;;27.43;42.18;101293.03;21087251;28;20074;-60
2023/06/19 05:04:36;;;;;;;11.48;10.27;;;;;;;27.43;42.05;101284.59;21085448;28;20040;-55
2023/06/19 05:14:37;;;;;;;11.18;10.05;;;;;;;27.43;42.18;101292.19;21084218;28;20051;-57
2023/06/19 05:24:39;;;;;;;10.73;9.48;;;;;;;27.41;42.34;101291.69;21083363;28;20044;-57
2023/06/19 05:34:40;;;;;;;10.73;9.63;;;;;;;27.41;42.22;101297.31;21081475;28;20036;-56
2023/06/19 05:44:41;;;;;;;11.20;10.02;;;;;;;27.42;42.06;101288.56;21081485;28;20101;-56
2023/06/19 05:54:43;;;;;;;9.70;8.70;;;;;;;27.43;41.99;101289.38;21080290;28;20124;-59
2023/06/19 06:04:47;;;;;;;10.15;8.70;;;;;;;27.43;42.12;101284.59;21080512;28;20043;-54
2023/06/19 06:14:48;;;;;;;10.55;9.50;;;;;;;27.43;42.29;101289.38;21079467;28;20043;-58
2023/06/19 06:24:49;;;;;;;9.77;8.77;;;;;;;27.38;42.04;101281.09;21079287;28;20027;-58
2023/06/19 06:34:52;;;;;;;10.45;9.35;;;;;;;27.44;42.11;101296.66;21077955;28;20471;-58
2023/06/19 06:44:53;;;;;;;9.60;8.45;;;;;;;27.43;41.92;101304.28;21075873;28;20044;-59
2023/06/19 06:54:54;;;;;;;9.73;8.73;;;;;;;27.45;41.95;101313.25;21076970;28;20052;-59
2023/06/19 07:04:56;;;;;;;10.13;9.13;;;;;;;27.45;42.04;101312.41;21076875;28;20044;-59
2023/06/19 07:14:57;;;;;;;9.65;8.75;;;;;;;27.45;41.98;101320.84;21077106;28;20544;-59
2023/06/19 07:24:58;;;;;;;9.85;8.85;;;;;;;27.45;41.96;101309.59;21076458;28;20425;-59
2023/06/19 07:35:00;;;;;;;10.45;9.45;;;;;;;27.45;41.90;101309.59;21075574;28;20102;-59
2023/06/19 07:45:01;;;;;;;9.63;8.65;;;;;;;27.44;41.92;101308.75;21074010;28;20153;-58
2023/06/19 07:55:05;;;;;;;9.98;8.85;;;;;;;27.45;42.00;101307.63;21083615;28;20036;-58
2023/06/19 08:05:08;;;;;;;10.13;9.10;;;;;;;27.43;41.93;101307.09;21089450;28;20036;-57
2023/06/19 08:15:11;;;;;;;9.60;8.60;;;;;;;27.46;42.12;101312.09;21088182;28;20479;-57
2023/06/19 08:25:12;;;;;;;10.25;9.15;;;;;;;27.46;41.95;101311.25;21088253;28;20040;-58
2023/06/19 08:35:15;;;;;;;10.38;9.38;;;;;;;27.46;41.96;101323.31;21087039;28;20441;-58
2023/06/19 08:45:18;;;;;;;9.95;8.95;;;;;;;27.45;42.13;101327.28;21086448;28;20507;-58
2023/06/19 08:55:20;;;;;;;9.40;8.40;;;;;;;27.42;41.99;101329.91;21085549;28;20105;-58
2023/06/19 09:05:21;;;;;;;9.88;8.88;;;;;;;27.45;41.76;101337.72;21084113;28;20471;-58
2023/06/19 09:15:23;;;;;;;10.85;9.65;;;;;;;27.43;41.82;101356.84;21084520;28;20036;-58
2023/06/19 09:25:26;;;;;;;10.55;9.23;;;;;;;27.46;41.66;101378.72;21083185;28;20484;-59
2023/06/19 09:35:28;;;;;;;10.35;9.32;;;;;;;27.43;41.87;101384.94;21082355;28;20763;-59
2023/06/19 09:45:30;;;;;;;10.68;9.57;;;;;;;27.44;41.76;101404.28;21081154;28;20036;-56
2023/06/19 09:55:33;;;;;;;10.25;8.98;;;;;;;27.45;41.91;101422.84;21080542;28;20153;-57
2023/06/19 10:05:36;;;;;;;10.90;9.77;;;;;;;27.45;41.87;101442.53;21079610;28;20040;-57
2023/06/19 10:15:44;;;;;;;10.40;8.93;;;;;;;27.44;41.92;101431.56;21078580;28;20438;-57
2023/06/19 10:25:56;;;;;;;11.68;9.40;;;;;;;27.42;41.85;101428.25;21078516;28;20036;-57
2023/06/19 10:35:59;;;;;;;10.30;9.23;;;;;;;27.44;41.90;101434.38;21077977;28;20039;-55
2023/06/19 10:46:04;;;;;;;9.98;8.95;;;;;;;27.44;41.74;101459.69;21077178;28;20445;-57
2023/06/19 10:56:08;;;;;;;9.32;8.43;;;;;;;27.44;41.89;101470.91;21077017;28;20036;-57
2023/06/19 11:06:09;;;;;;;9.52;8.52;;;;;;;27.44;41.81;101482.16;21076193;28;20414;-57
2023/06/19 11:16:10;;;;;;;9.68;8.68;;;;;;;27.44;41.82;101487.78;21075445;28;20044;-58
2023/06/19 11:26:12;;;;;;;9.00;8.10;;;;;;;27.44;41.81;101485.81;21079100;28;20032;-58
2023/06/19 11:36:13;;;;;;;9.45;8.35;;;;;;;27.42;41.76;101512.56;21091688;28;20043;-57
2023/06/19 11:46:28;;;;;;;9.68;8.45;;;;;;;27.41;41.86;101528.59;21090324;28;20438;-57
2023/06/19 11:56:29;;;;;;;9.20;8.20;;;;;;;27.43;41.83;101542.34;21090525;28;20086;-58
2023/06/19 12:06:31;;;;;;;9.55;8.07;;;;;;;27.29;41.99;101526.28;21089465;28;20028;-59
2023/06/19 12:16:32;;;;;;;8.98;7.65;;;;;;;27.42;41.96;101566.81;21088785;28;20036;-58
2023/06/19 12:26:42;;;;;;;8.25;7.38;;;;;;;27.45;41.63;101590.66;21088156;28;20372;-56
2023/06/19 12:36:47;;;;;;;8.48;7.68;;;;;;;27.46;41.71;101575.47;21085501;28;20020;-57
2023/06/19 12:46:48;;;;;;;7.95;7.15;;;;;;;27.45;41.78;101573.81;21085736;28;20044;-56
2023/06/19 12:56:50;;;;;;;7.97;7.18;;;;;;;27.43;41.99;101559.22;21085338;28;20537;-56
2023/06/19 13:06:51;;;;;;;7.80;7.00;;;;;;;27.45;41.91;101569.00;21084967;28;20475;-56
2023/06/19 13:16:52;;;;;;;7.80;7.00;;;;;;;27.45;41.88;101579.41;21083585;28;20040;-55
2023/06/19 13:26:54;;;;;;;7.25;6.35;;;;;;;27.39;41.78;101552.53;21082491;28;20070;-58
2023/06/19 13:36:56;;;;;;;7.80;6.75;;;;;;;27.45;41.95;101551.31;21082267;28;20078;-57
2023/06/19 13:46:57;;;;;;;6.97;6.38;;;;;;;27.46;41.78;101555.78;21081151;28;20097;-58
2023/06/19 13:56:58;;;;;;;7.25;6.55;;;;;;;27.45;41.98;101551.31;21080522;28;20048;-56
2023/06/19 14:07:00;;;;;;;6.72;5.90;;;;;;;27.46;42.08;101544.53;21079691;28;20039;-57
2023/06/19 14:17:04;;;;;;;7.82;6.38;;;;;;;27.45;41.99;101556.94;21078915;28;20036;-57
2023/06/19 14:27:06;;;;;;;6.80;6.18;;;;;;;27.41;42.11;101551.09;21078581;28;20516;-56
2023/06/19 14:37:07;;;;;;;7.30;6.13;;;;;;;27.47;42.02;101571.50;21076894;28;20044;-58
2023/06/19 14:47:08;;;;;;;6.80;6.10;;;;;;;27.47;41.96;101569.53;21075791;28;20039;-58
2023/06/19 14:57:11;;;;;;;6.20;5.60;;;;;;;27.48;41.84;101573.16;21076320;28;20055;-57
2023/06/19 15:07:13;;;;;;;5.97;5.38;;;;;;;27.45;42.03;101556.94;21075284;28;20105;-57
2023/06/19 15:17:14;;;;;;;5.88;5.07;;;;;;;27.47;42.13;101574.31;21075934;28;20384;-57
2023/06/19 15:27:16;;;;;;;5.93;5.38;;;;;;;27.48;42.02;101561.91;21075511;28;20113;-57
2023/06/19 15:37:20;;;;;;;6.30;5.70;;;;;;;27.37;41.06;101533.19;21074805;28;20044;-58
2023/06/19 15:47:21;;;;;;;6.10;5.55;;;;;;;27.34;40.28;101565.53;21074517;28;20048;-57
2023/06/19 15:57:23;;;;;;;6.63;5.93;;;;;;;27.21;39.87;101562.69;21074417;28;20056;-56
2023/06/19 16:07:24;;;;;;;7.20;6.32;;;;;;;27.12;39.49;101548.53;21073784;28;20024;-58
2023/06/19 16:17:25;;;;;;;7.38;6.68;;;;;;;26.99;39.40;101541.72;21082527;28;20039;-58
2023/06/19 16:27:27;;;;;;;7.78;6.97;;;;;;;26.98;39.43;101556.06;21088203;28;20051;-57
2023/06/19 16:37:28;;;;;;;8.10;7.30;;;;;;;26.93;38.88;101544.91;21086780;28;20031;-56
2023/06/19 16:47:32;;;;;;;8.68;7.78;;;;;;;26.89;39.16;101538.25;21086125;28;20044;-58
2023/06/19 16:57:34;;;;;;;8.95;8.05;;;;;;;26.82;39.13;101522.63;21085028;28;20036;-58
2023/06/19 17:07:38;;;;;;;8.88;7.97;;;;;;;26.79;39.13;101519.59;21085161;28;20040;-58
2023/06/19 17:17:39;;;;;;;10.95;8.57;;;;;;;26.76;38.97;101507.03;21084507;28;20048;-57
2023/06/19 17:27:41;;;;;;;11.23;8.57;;;;;;;26.75;39.05;101499.72;21082093;28;20040;-57
2023/06/19 17:37:44;;;;;;;9.57;8.55;;;;;;;26.70;38.86;101497.00;21082084;28;20044;-57
2023/06/19 17:47:45;;;;;;;10.10;9.00;;;;;;;26.63;39.05;101484.53;21081217;28;20548;-57
2023/06/19 17:57:49;;;;;;;10.60;9.50;;;;;;;26.69;39.36;101484.13;21082863;28;20043;-58
2023/06/19 18:07:50;;;;;;;11.88;9.63;;;;;;;26.70;39.82;101485.78;21078227;28;20036;-58
2023/06/19 18:17:54;;;;;;;36.60;11.63;;;;;;;26.71;40.13;101481.00;21077397;28;20122;-57
2023/06/19 18:27:56;;;;;;;42.40;12.68;;;;;;;26.70;39.97;101468.94;21077462;28;20039;-57
2023/06/19 18:37:57;;;;;;;24.13;11.68;;;;;;;26.68;39.88;101453.56;21077311;28;20104;-56
2023/06/19 18:47:58;;;;;;;30.35;12.20;;;;;;;26.69;40.01;101447.63;21076818;28;20098;-58
2023/06/19 18:58:00;;;;;;;16.73;11.35;;;;;;;26.66;39.88;101434.19;21074705;28;20056;-57
2023/06/19 19:08:05;;;;;;;27.67;12.57;;;;;;;26.69;40.32;101421.53;21075466;28;20040;-57
2023/06/19 19:18:08;;;;;;;19.13;12.00;;;;;;;26.70;40.05;101417.56;21074492;28;20059;-57
2023/06/19 19:28:13;;;;;;;17.23;12.23;;;;;;;26.69;40.27;101422.34;21074740;28;20055;-56
2023/06/19 19:38:18;;;;;;;23.75;12.57;;;;;;;26.67;40.28;101405.00;21075361;28;20048;-56
2023/06/19 19:48:20;;;;;;;16.65;12.02;;;;;;;26.65;40.29;101393.25;21079016;28;20441;-57
2023/06/19 19:58:23;;;;;;;15.73;13.02;;;;;;;26.63;40.26;101392.72;21088949;28;20560;-58
2023/06/19 20:08:25;;;;;;;18.48;12.65;;;;;;;26.59;40.55;101377.66;21089087;28;20113;-57
2023/06/19 20:18:26;;;;;;;16.60;13.65;;;;;;;26.71;40.64;101397.63;21086037;28;20048;-56
2023/06/19 20:28:28;;;;;;;19.10;13.75;;;;;;;26.61;40.57;101386.56;21087399;28;20032;-54
2023/06/19 20:38:32;;;;;;;16.83;12.80;;;;;;;26.67;40.57;101402.19;21085908;28;20468;-55
2023/06/19 20:48:36;;;;;;;20.10;12.80;;;;;;;26.68;40.12;101398.25;21085661;28;20044;-57
2023/06/19 20:58:37;;;;;;;18.70;14.07;;;;;;;26.67;40.08;101405.00;21069828;28;20132;-55
2023/06/19 21:08:42;;;;;;;56.33;16.60;;;;;;;26.65;40.71;101407.28;21062375;28;20045;-57
2023/06/19 21:18:44;;;;;;;43.55;16.77;;;;;;;26.69;40.79;101413.94;21068250;28;20097;-56
2023/06/19 21:28:45;;;;;;;47.67;17.88;;;;;;;26.68;41.08;101431.94;21075585;28;20036;-56
2023/06/19 21:38:46;;;;;;;35.97;17.17;;;;;;;26.61;41.42;101437.09;21080864;28;20047;-57
2023/06/19 21:48:48;;;;;;;48.85;16.77;;;;;;;26.48;41.97;101437.88;21077480;28;20101;-58
2023/06/19 21:58:49;;;;;;;45.10;16.13;;;;;;;26.63;43.17;101462.91;21077086;28;20048;-55
2023/06/19 22:08:50;;;;;;;65.30;19.45;;;;;;;26.50;43.15;101453.28;21078230;28;20044;-59
2023/06/19 22:18:55;;;;;;;51.08;17.90;;;;;;;26.69;43.31;101483.28;21077919;28;20051;-58
2023/06/19 22:28:56;;;;;;;61.38;18.92;;;;;;;26.71;43.18;101498.69;21077090;28;20052;-59
2023/06/19 22:39:00;;;;;;;47.60;18.27;;;;;;;26.68;43.26;101510.53;21075636;28;20093;-56
2023/06/19 22:49:03;;;;;;;42.35;17.50;;;;;;;26.66;42.97;101534.44;21051629;28;20044;-57
2023/06/19 22:59:05;;;;;;;33.40;17.13;;;;;;;26.68;42.50;101549.84;21077179;28;20052;-57
2023/06/19 23:09:06;;;;;;;30.50;17.27;;;;;;;26.67;42.32;101562.22;21075890;28;20066;-57
2023/06/19 23:19:08;;;;;;;26.50;16.50;;;;;;;26.67;42.68;101595.06;21075687;28;20147;-58
2023/06/19 23:29:09;;;;;;;23.83;16.40;;;;;;;26.64;42.13;101612.50;21090990;28;20040;-58
2023/06/19 23:39:11;;;;;;;23.80;15.95;;;;;;;26.62;42.01;101629.66;21091893;28;20044;-57
2023/06/19 23:49:12;;;;;;;22.70;16.42;;;;;;;26.60;41.31;101631.94;21066886;28;20044;-56
2023/06/19 23:59:13;;;;;;;33.20;16.65;;;;;;;26.56;42.33;101623.28;21071195;28;20044;-58
